Time;durP1;ratioP1;P1;durP2;ratioP2;P2;SDS_P1;SDS_P2;PMS_P1;PMS_P2;Temp;Humidity;BMP_temperature;BMP_pressure;BME280_temperature;BME280_humidity;BME280_pressure;Samples;Min_cycle;Max_cycle;Signal;HPM_P1;HPM_P2
2022/02/16 00:01:06;;;;;;;3.20;1.95;;;;;;;9.75;48.81;100340.03;5014513;28;99035;-75
2022/02/16 00:03:34;;;;;;;4.43;1.95;;;;;;;9.66;48.39;100334.25;5013840;28;97502;-75
2022/02/16 00:06:00;;;;;;;3.20;1.90;;;;;;;9.65;48.64;100330.75;5015182;28;96724;-76
2022/02/16 00:08:27;;;;;;;8.55;2.78;;;;;;;9.51;48.96;100327.81;5014951;28;96848;-76
2022/02/16 00:10:53;;;;;;;3.30;1.80;;;;;;;9.86;48.11;100335.19;5014343;28;99603;-75
2022/02/16 00:13:20;;;;;;;4.93;2.78;;;;;;;9.96;47.44;100330.44;5013807;28;99406;-75
2022/02/16 00:15:46;;;;;;;6.07;2.10;;;;;;;9.95;47.79;100334.84;5014366;28;96747;-76
2022/02/16 00:18:14;;;;;;;6.35;2.15;;;;;;;9.74;47.68;100326.91;5008066;28;97680;-75
2022/02/16 00:20:42;;;;;;;4.32;1.90;;;;;;;9.86;47.25;100322.00;5016095;28;99446;-75
2022/02/16 00:23:09;;;;;;;2.65;1.77;;;;;;;9.99;47.33;100323.25;5015722;28;99499;-75
2022/02/16 00:25:35;;;;;;;4.13;1.75;;;;;;;9.84;47.43;100321.22;5008686;28;98536;-75
2022/02/16 00:28:01;;;;;;;6.05;1.67;;;;;;;9.87;47.75;100318.47;5010339;28;96872;-74
2022/02/16 00:30:28;;;;;;;3.50;1.50;;;;;;;10.13;47.19;100314.78;5014255;28;99390;-75
2022/02/16 00:32:55;;;;;;;3.10;1.70;;;;;;;10.02;47.70;100313.50;5011290;28;99439;-75
2022/02/16 00:35:22;;;;;;;4.13;1.38;;;;;;;9.71;48.88;100306.78;5018294;28;97032;-75
2022/02/16 00:37:51;;;;;;;3.47;1.27;;;;;;;10.10;48.33;100308.78;5016464;28;96749;-76
2022/02/16 00:40:18;;;;;;;4.20;1.63;;;;;;;10.06;48.45;100301.88;5015219;28;99008;-75
2022/02/16 00:42:44;;;;;;;4.32;1.70;;;;;;;9.88;49.34;100309.63;5018297;28;101375;-76
2022/02/16 00:45:11;;;;;;;6.18;1.55;;;;;;;9.86;49.56;100314.09;5015987;28;97620;-76
2022/02/16 00:47:38;;;;;;;4.97;1.75;;;;;;;9.94;49.48;100306.75;5027997;28;96737;-76
2022/02/16 00:50:05;;;;;;;3.80;1.70;;;;;;;9.85;50.12;100307.09;5030911;28;99082;-75
2022/02/16 00:52:31;;;;;;;4.68;1.85;;;;;;;10.13;49.97;100303.34;5025814;28;97709;-75
2022/02/16 00:54:59;;;;;;;3.85;1.70;;;;;;;10.12;49.48;100294.56;5025947;28;96653;-74
2022/02/16 00:57:25;;;;;;;2.92;1.55;;;;;;;9.96;50.20;100302.28;5026784;28;96880;-74
2022/02/16 00:59:52;;;;;;;2.78;1.73;;;;;;;10.37;49.46;100290.03;5022839;28;98099;-76
2022/02/16 01:02:18;;;;;;;9.52;2.00;;;;;;;10.24;49.94;100295.91;5019389;28;98361;-76
2022/02/16 01:04:44;;;;;;;3.47;1.70;;;;;;;10.15;51.07;100290.97;5015644;28;96834;-76
2022/02/16 01:07:11;;;;;;;3.50;1.65;;;;;;;10.04;51.05;100282.63;5017528;28;97550;-75
2022/02/16 01:09:37;;;;;;;5.22;2.03;;;;;;;9.99;51.61;100277.50;5020735;28;99664;-75
2022/02/16 01:12:05;;;;;;;5.82;2.00;;;;;;;10.00;51.69;100277.47;5016000;28;99055;-74
2022/02/16 01:14:32;;;;;;;6.78;1.90;;;;;;;9.68;53.54;100274.38;5018011;28;96850;-77
2022/02/16 01:16:58;;;;;;;4.95;1.77;;;;;;;9.76;52.95;100267.88;5017298;28;97830;-75
2022/02/16 01:19:25;;;;;;;4.50;1.80;;;;;;;9.71;53.15;100276.91;5021455;28;99527;-76
2022/02/16 01:21:52;;;;;;;7.93;2.13;;;;;;;9.50;53.86;100271.56;5021652;28;98936;-77
2022/02/16 01:24:19;;;;;;;3.97;1.77;;;;;;;9.46;54.20;100269.94;5021004;28;96682;-76
2022/02/16 01:26:45;;;;;;;5.28;1.67;;;;;;;9.56;53.71;100265.19;5019198;28;98318;-76
2022/02/16 01:29:13;;;;;;;5.65;2.00;;;;;;;9.66;54.24;100265.66;5022901;28;98368;-76
2022/02/16 01:31:40;;;;;;;5.63;2.05;;;;;;;9.43;54.35;100256.03;5012228;28;98141;-77
2022/02/16 01:34:07;;;;;;;6.10;1.98;;;;;;;9.65;54.67;100256.88;5021343;28;96930;-75
2022/02/16 01:36:33;;;;;;;5.93;1.90;;;;;;;9.55;55.14;100248.50;5016610;28;96951;-72
2022/02/16 01:39:00;;;;;;;8.50;2.13;;;;;;;9.38;56.21;100239.53;5021187;28;99241;-74
2022/02/16 01:41:26;;;;;;;2.67;1.98;;;;;;;9.45;55.64;100244.47;5018791;28;99105;-74
2022/02/16 01:43:54;;;;;;;5.18;2.30;;;;;;;9.74;55.42;100229.28;5023000;28;96788;-74
2022/02/16 01:46:22;;;;;;;2.95;2.30;;;;;;;9.52;56.32;100237.19;5019833;28;96860;-76
2022/02/16 01:48:48;;;;;;;11.07;2.40;;;;;;;9.39;56.59;100228.03;5017472;28;99589;-75
2022/02/16 01:51:15;;;;;;;5.80;2.17;;;;;;;9.44;56.49;100220.81;5022184;28;98078;-74
2022/02/16 01:53:42;;;;;;;5.72;2.15;;;;;;;9.37;57.13;100229.88;5019873;28;96779;-76
2022/02/16 01:56:09;;;;;;;4.53;2.25;;;;;;;9.81;56.19;100204.38;5016874;28;96779;-76
2022/02/16 01:58:35;;;;;;;6.75;2.47;;;;;;;9.68;56.12;100209.28;5018319;28;97797;-77
2022/02/16 02:01:03;;;;;;;4.85;2.45;;;;;;;9.70;56.48;100204.81;5018397;28;99106;-75
2022/02/16 02:03:32;;;;;;;4.20;2.33;;;;;;;9.51;56.89;100203.84;5018718;28;96875;-77
2022/02/16 02:05:58;;;;;;;5.72;2.55;;;;;;;9.63;56.38;100203.34;5023829;28;96737;-75
2022/02/16 02:08:26;;;;;;;4.03;2.63;;;;;;;9.42;57.08;100193.66;5019428;28;100093;-75
2022/02/16 02:10:53;;;;;;;5.20;2.15;;;;;;;9.52;56.80;100194.97;5015447;28;98862;-74
2022/02/16 02:13:20;;;;;;;3.75;2.00;;;;;;;9.66;57.05;100184.75;5013793;28;96960;-77
2022/02/16 02:15:47;;;;;;;4.13;2.50;;;;;;;9.20;57.99;100183.06;5014250;28;97516;-75
2022/02/16 02:18:14;;;;;;;6.38;2.28;;;;;;;9.35;57.84;100171.06;5016798;28;99063;-76
2022/02/16 02:20:44;;;;;;;4.43;2.50;;;;;;;9.24;58.35;100168.00;5016132;28;98278;-74
2022/02/16 02:23:11;;;;;;;6.78;2.92;;;;;;;9.53;57.84;100163.28;5010583;28;96872;-75
2022/02/16 02:25:45;;;;;;;7.05;3.10;;;;;;;9.41;58.15;100155.00;5015387;28;96549;-75
2022/02/16 02:28:11;;;;;;;5.95;2.22;;;;;;;9.04;59.13;100163.50;5017802;28;97991;-75
2022/02/16 02:30:38;;;;;;;7.93;2.63;;;;;;;9.27;58.78;100168.72;5020685;28;97782;-75
2022/02/16 02:33:05;;;;;;;6.95;2.47;;;;;;;8.96;58.43;100152.38;5014308;28;96833;-76
2022/02/16 02:35:31;;;;;;;5.35;2.28;;;;;;;9.18;58.64;100142.75;5018702;28;96760;-75
2022/02/16 02:37:59;;;;;;;5.82;2.60;;;;;;;9.38;58.73;100139.31;5018289;28;99030;-76
2022/02/16 02:40:26;;;;;;;5.32;2.65;;;;;;;9.67;57.93;100131.06;5022502;28;98377;-75
2022/02/16 02:42:52;;;;;;;4.65;2.38;;;;;;;9.85;57.03;100125.00;5023320;28;96984;-75
2022/02/16 02:45:18;;;;;;;4.97;2.50;;;;;;;9.50;57.92;100131.78;5019107;28;96665;-75
2022/02/16 02:47:45;;;;;;;6.95;2.75;;;;;;;9.29;58.59;100127.34;5025023;28;98887;-74
2022/02/16 02:50:11;;;;;;;5.75;2.50;;;;;;;9.32;58.51;100119.31;5021942;28;98086;-75
2022/02/16 02:52:38;;;;;;;7.45;2.75;;;;;;;9.34;58.40;100111.34;5021249;28;96851;-76
2022/02/16 02:55:08;;;;;;;5.15;2.05;;;;;;;9.26;58.56;100108.16;5021359;28;96837;-74
2022/02/16 02:57:34;;;;;;;5.47;2.33;;;;;;;9.19;58.41;100108.38;5018558;28;98796;-75
2022/02/16 03:00:00;;;;;;;7.82;2.97;;;;;;;9.13;58.65;100097.22;5011508;28;99424;-75
2022/02/16 03:02:27;;;;;;;8.93;2.60;;;;;;;9.46;57.82;100098.50;5012784;28;97261;-75
2022/02/16 03:04:53;;;;;;;5.32;2.20;;;;;;;9.53;57.56;100104.38;5012781;28;96913;-74
2022/02/16 03:07:19;;;;;;;6.47;2.88;;;;;;;9.45;57.55;100095.97;5012520;28;99536;-72
2022/02/16 03:09:46;;;;;;;5.72;2.40;;;;;;;9.55;57.79;100092.00;5012725;28;99992;-74
2022/02/16 03:12:13;;;;;;;9.77;2.72;;;;;;;9.29;58.14;100087.81;5011149;28;96862;-75
2022/02/16 03:14:40;;;;;;;6.13;2.55;;;;;;;9.26;58.26;100084.41;5014279;28;96803;-75
2022/02/16 03:17:06;;;;;;;7.03;2.28;;;;;;;9.48;57.43;100080.84;5011877;28;99349;-73
2022/02/16 03:19:32;;;;;;;5.13;2.33;;;;;;;9.23;57.94;100074.00;5012236;28;99063;-74
2022/02/16 03:21:59;;;;;;;4.53;2.40;;;;;;;9.14;58.43;100080.50;5010279;28;97149;-76
2022/02/16 03:24:25;;;;;;;6.97;2.92;;;;;;;9.24;58.39;100073.09;5007191;28;96688;-75
2022/02/16 03:26:52;;;;;;;6.75;2.65;;;;;;;9.23;58.28;100079.28;5010122;28;102450;-76
2022/02/16 03:29:20;;;;;;;7.93;2.55;;;;;;;9.35;57.67;100057.69;5012035;28;99015;-76
2022/02/16 03:31:46;;;;;;;3.85;2.13;;;;;;;9.32;58.19;100052.56;5011452;28;96819;-74
2022/02/16 03:34:13;;;;;;;8.32;2.75;;;;;;;9.00;58.65;100052.06;5014654;28;97817;-75
2022/02/16 03:36:39;;;;;;;5.72;2.10;;;;;;;9.27;57.87;100043.97;5016059;28;99503;-74
2022/02/16 03:39:06;;;;;;;7.25;2.30;;;;;;;9.17;57.71;100047.00;5007749;28;98880;-74
2022/02/16 03:41:32;;;;;;;6.47;3.28;;;;;;;8.89;58.80;100051.66;5012575;28;96729;-75
2022/02/16 03:43:59;;;;;;;5.07;2.45;;;;;;;9.12;58.32;100042.84;5011844;28;97358;-74
2022/02/16 03:46:27;;;;;;;8.07;2.55;;;;;;;8.87;59.07;100048.19;5010944;28;99076;-74
2022/02/16 03:48:53;;;;;;;5.55;2.30;;;;;;;9.12;57.99;100041.03;5012156;28;99213;-74
2022/02/16 03:51:19;;;;;;;5.80;2.25;;;;;;;9.10;58.15;100039.38;5011442;28;96939;-74
2022/02/16 03:53:46;;;;;;;5.95;2.28;;;;;;;9.08;58.27;100039.44;5012631;28;96814;-75
2022/02/16 03:56:12;;;;;;;3.83;2.20;;;;;;;9.26;57.97;100034.31;5013106;28;99158;-74
2022/02/16 03:58:38;;;;;;;8.30;2.70;;;;;;;9.35;58.04;100041.88;5012979;28;99565;-75
2022/02/16 04:01:05;;;;;;;6.50;2.25;;;;;;;9.54;57.30;100034.91;5013618;28;97334;-75
2022/02/16 04:03:33;;;;;;;7.75;2.25;;;;;;;9.45;56.84;100027.41;5013541;28;96797;-75
2022/02/16 04:06:00;;;;;;;8.20;2.22;;;;;;;9.24;57.73;100020.38;5012058;28;99033;-74
2022/02/16 04:08:26;;;;;;;6.22;2.30;;;;;;;9.38;57.51;100021.53;5013609;28;99179;-75
2022/02/16 04:10:52;;;;;;;4.55;2.22;;;;;;;9.16;57.60;100029.44;5014349;28;98748;-75
2022/02/16 04:13:19;;;;;;;4.00;2.10;;;;;;;9.46;57.28;100029.94;5016461;28;96898;-75
2022/02/16 04:15:45;;;;;;;4.63;2.45;;;;;;;9.76;56.47;100026.94;5014777;28;99477;-76
2022/02/16 04:18:11;;;;;;;5.30;2.15;;;;;;;9.69;56.34;100023.69;5016552;28;99607;-76
2022/02/16 04:20:39;;;;;;;2.85;2.25;;;;;;;9.46;56.88;100022.03;5011963;28;96950;-75
2022/02/16 04:23:05;;;;;;;9.02;2.20;;;;;;;9.08;57.74;100015.72;5010399;28;96792;-76
2022/02/16 04:25:32;;;;;;;2.95;2.05;;;;;;;9.48;57.34;100003.50;5012179;28;99521;-76
2022/02/16 04:27:58;;;;;;;5.03;2.30;;;;;;;9.36;57.85;100017.22;5015807;28;99033;-76
2022/02/16 04:30:25;;;;;;;3.90;2.13;;;;;;;9.65;56.50;100008.91;5011697;28;97677;-76
2022/02/16 04:32:51;;;;;;;7.22;2.17;;;;;;;9.37;56.99;100003.13;5014769;28;96885;-75
2022/02/16 04:35:18;;;;;;;5.10;2.38;;;;;;;9.83;55.91;100007.28;5011051;28;98992;-75
2022/02/16 04:37:45;;;;;;;6.07;2.30;;;;;;;9.63;56.59;100010.78;5015212;28;98766;-75
2022/02/16 04:40:13;;;;;;;4.53;2.22;;;;;;;9.71;56.30;100015.72;5013666;28;96846;-75
2022/02/16 04:42:39;;;;;;;4.53;2.00;;;;;;;10.00;55.97;100004.72;5014045;28;96732;-76
2022/02/16 04:45:06;;;;;;;4.18;2.28;;;;;;;9.34;56.95;100011.16;5013141;28;99290;-76
2022/02/16 04:47:33;;;;;;;4.05;2.00;;;;;;;9.67;56.68;99999.16;5014250;28;98181;-75
2022/02/16 04:49:59;;;;;;;8.40;2.17;;;;;;;9.69;56.71;100002.59;5014300;28;97273;-74
2022/02/16 04:52:34;;;;;;;6.80;2.10;;;;;;;9.91;55.46;100003.34;5014839;28;96774;-74
2022/02/16 04:55:03;;;;;;;3.63;1.88;;;;;;;9.81;56.32;99995.91;5012062;28;97922;-74
2022/02/16 04:57:29;;;;;;;3.25;1.80;;;;;;;9.70;56.50;99995.53;5013979;28;98344;-75
2022/02/16 04:59:58;;;;;;;4.95;2.08;;;;;;;9.75;56.35;99994.41;5013512;28;97509;-74
2022/02/16 05:02:25;;;;;;;7.93;2.40;;;;;;;9.42;57.23;99982.69;5010670;28;96866;-74
2022/02/16 05:04:51;;;;;;;4.88;2.03;;;;;;;9.57;57.46;99993.44;5010445;28;100252;-74
2022/02/16 05:07:18;;;;;;;5.68;2.30;;;;;;;9.84;56.24;99979.97;5014168;28;98917;-76
2022/02/16 05:09:44;;;;;;;4.18;1.70;;;;;;;10.03;55.82;99978.22;5012619;28;96792;-74
2022/02/16 05:12:12;;;;;;;4.85;1.65;;;;;;;9.80;56.41;99973.09;5014825;28;97361;-75
2022/02/16 05:14:38;;;;;;;4.75;1.90;;;;;;;9.76;56.50;99980.31;5013106;28;99617;-74
2022/02/16 05:17:05;;;;;;;3.65;1.98;;;;;;;9.66;56.69;99971.06;5011897;28;99314;-74
2022/02/16 05:19:31;;;;;;;5.57;1.80;;;;;;;9.76;56.26;99977.66;5010655;28;96717;-76
2022/02/16 05:21:58;;;;;;;8.10;2.85;;;;;;;9.95;56.08;99977.69;5011062;28;96926;-74
2022/02/16 05:24:24;;;;;;;2.25;1.63;;;;;;;9.70;56.54;99967.38;5009424;28;99353;-74
2022/02/16 05:26:51;;;;;;;2.83;1.92;;;;;;;9.86;56.17;99975.47;5013879;28;99495;-75
2022/02/16 05:29:19;;;;;;;7.00;2.25;;;;;;;9.99;56.13;99974.84;5014982;28;96655;-75
2022/02/16 05:31:45;;;;;;;6.63;2.40;;;;;;;9.96;56.21;99972.34;5014178;28;96787;-75
2022/02/16 05:34:12;;;;;;;5.45;2.10;;;;;;;10.01;55.98;99977.41;5010740;28;99258;-75
2022/02/16 05:36:38;;;;;;;3.90;2.00;;;;;;;9.94;56.24;99976.84;5009505;28;98986;-75
2022/02/16 05:39:05;;;;;;;4.38;1.67;;;;;;;10.36;55.46;99968.78;5014956;28;96852;-76
2022/02/16 05:41:32;;;;;;;5.18;2.00;;;;;;;10.39;54.96;99967.75;5014156;28;96776;-75
2022/02/16 05:43:58;;;;;;;5.80;2.10;;;;;;;10.36;55.68;99962.63;5007321;28;99266;-75
2022/02/16 05:46:26;;;;;;;4.88;2.00;;;;;;;10.12;55.81;99969.00;5013840;28;99518;-75
2022/02/16 05:48:53;;;;;;;6.20;2.22;;;;;;;10.32;55.60;99953.97;5014713;28;96743;-76
2022/02/16 05:51:20;;;;;;;4.47;1.98;;;;;;;10.12;56.09;99953.16;5016578;28;96812;-74
2022/02/16 05:53:46;;;;;;;4.72;2.00;;;;;;;9.98;56.15;99952.00;5011220;28;97636;-75
2022/02/16 05:56:13;;;;;;;8.00;2.05;;;;;;;10.01;56.79;99945.75;5015204;28;98765;-75
2022/02/16 05:58:39;;;;;;;8.52;2.63;;;;;;;10.02;56.42;99943.97;5014970;28;97570;-76
2022/02/16 06:01:06;;;;;;;3.25;1.80;;;;;;;10.17;56.82;99935.38;5013426;28;97307;-76
2022/02/16 06:03:35;;;;;;;3.80;1.50;;;;;;;10.03;56.84;99943.03;5014005;28;97746;-77
2022/02/16 06:06:01;;;;;;;4.65;2.08;;;;;;;10.06;57.00;99949.03;5014427;28;99332;-75
2022/02/16 06:08:27;;;;;;;11.30;3.03;;;;;;;10.20;57.35;99938.72;5015065;28;96719;-75
2022/02/16 06:10:57;;;;;;;5.70;1.98;;;;;;;10.20;57.34;99937.84;5014441;28;97017;-76
2022/02/16 06:13:24;;;;;;;8.57;2.10;;;;;;;10.19;57.50;99944.06;5017572;28;99488;-76
2022/02/16 06:15:51;;;;;;;5.00;2.08;;;;;;;10.38;57.16;99934.34;5016647;28;99423;-76
2022/02/16 06:18:17;;;;;;;3.72;1.80;;;;;;;10.33;57.21;99929.28;5017807;28;96711;-76
2022/02/16 06:20:44;;;;;;;4.72;1.90;;;;;;;10.29;57.08;99926.88;5037620;27;97946;-75
2022/02/16 06:23:11;;;;;;;4.43;1.75;;;;;;;10.41;57.14;99918.38;5035646;27;98203;-76
2022/02/16 06:25:37;;;;;;;5.63;2.05;;;;;;;9.63;59.09;99928.16;5028876;28;97850;-77
2022/02/16 06:28:04;;;;;;;2.78;1.70;;;;;;;9.85;59.03;99910.41;5022509;28;96747;-76
2022/02/16 06:30:31;;;;;;;3.53;1.70;;;;;;;9.88;58.70;99915.56;5017645;28;96840;-76
2022/02/16 06:32:59;;;;;;;2.50;1.63;;;;;;;10.22;58.08;99917.53;5013065;28;97190;-75
2022/02/16 06:35:25;;;;;;;3.88;1.90;;;;;;;10.19;57.98;99901.81;5011337;28;97550;-77
2022/02/16 06:37:53;;;;;;;3.38;2.15;;;;;;;10.21;58.41;99913.19;5017926;28;96630;-75
2022/02/16 06:40:20;;;;;;;6.93;2.20;;;;;;;10.24;58.21;99897.22;5018981;28;96764;-76
2022/02/16 06:42:46;;;;;;;4.78;2.00;;;;;;;10.33;58.30;99905.53;5017825;28;97893;-76
2022/02/16 06:45:13;;;;;;;5.85;1.80;;;;;;;10.12;58.83;99910.91;5017242;28;99111;-76
2022/02/16 06:47:39;;;;;;;2.08;1.70;;;;;;;10.08;58.82;99904.09;5013297;28;96643;-76
2022/02/16 06:50:06;;;;;;;3.38;1.70;;;;;;;10.23;58.63;99895.50;5012559;28;100271;-76
2022/02/16 06:52:33;;;;;;;2.53;1.50;;;;;;;9.88;59.31;99881.25;5013080;28;99118;-75
2022/02/16 06:55:01;;;;;;;6.68;2.20;;;;;;;9.96;59.45;99884.41;5018019;28;99335;-76
2022/02/16 06:57:27;;;;;;;2.65;1.58;;;;;;;9.99;58.83;99885.09;5006867;28;98018;-76
2022/02/16 06:59:53;;;;;;;2.53;1.70;;;;;;;9.82;59.52;99878.91;5007016;28;97255;-76
2022/02/16 07:02:20;;;;;;;5.95;1.65;;;;;;;9.79;60.14;99877.25;5006075;28;99517;-75
2022/02/16 07:05:00;;;;;;;18.75;2.70;;;;;;;10.33;58.51;99863.28;5001827;28;98812;-74
2022/02/16 07:07:29;;;;;;;5.43;1.98;;;;;;;10.11;59.38;99856.44;5004603;28;96814;-75
2022/02/16 07:09:56;;;;;;;4.13;1.70;;;;;;;9.56;60.65;99856.34;5009484;28;97855;-75
2022/02/16 07:12:23;;;;;;;7.72;1.75;;;;;;;9.42;61.33;99835.03;5005913;28;101611;-76
2022/02/16 07:14:53;;;;;;;4.68;2.03;;;;;;;9.75;60.55;99827.34;5009305;28;99311;-77
2022/02/16 07:17:20;;;;;;;2.50;1.98;;;;;;;9.54;61.44;99829.19;5008965;28;96904;-75
2022/02/16 07:19:46;;;;;;;3.58;1.58;;;;;;;9.74;60.81;99829.13;5000129;28;96808;-77
2022/02/16 07:22:13;;;;;;;4.07;1.38;;;;;;;9.33;62.16;99825.72;5006272;28;101478;-76
2022/02/16 07:24:39;;;;;;;3.60;1.45;;;;;;;9.60;61.45;99831.53;5007846;28;98282;-77
2022/02/16 07:27:05;;;;;;;5.80;1.50;;;;;;;9.98;60.31;99824.47;5008732;28;96909;-76
2022/02/16 07:29:33;;;;;;;4.03;1.40;;;;;;;9.71;60.56;99821.38;5011830;28;96963;-77
2022/02/16 07:31:59;;;;;;;6.45;1.65;;;;;;;9.39;61.50;99824.59;5012389;28;99042;-75
2022/02/16 07:34:27;;;;;;;3.65;1.75;;;;;;;9.77;60.85;99825.50;5013959;28;98943;-76
2022/02/16 07:36:53;;;;;;;2.75;1.52;;;;;;;9.75;60.75;99815.00;5013814;28;96788;-77
2022/02/16 07:39:20;;;;;;;5.03;1.65;;;;;;;9.77;60.26;99810.53;5010082;28;97329;-76
2022/02/16 07:41:46;;;;;;;2.17;1.58;;;;;;;9.84;60.11;99811.09;5008679;28;99305;-75
2022/02/16 07:44:13;;;;;;;5.32;1.60;;;;;;;10.12;59.99;99808.84;5005839;28;98179;-75
2022/02/16 07:46:40;;;;;;;4.38;1.35;;;;;;;9.68;60.86;99804.81;5012234;28;97070;-76
2022/02/16 07:49:07;;;;;;;1.75;1.25;;;;;;;10.15;59.84;99813.13;5006060;28;97373;-75
2022/02/16 07:51:33;;;;;;;3.17;1.23;;;;;;;9.99;59.84;99816.47;5008649;28;98113;-74
2022/02/16 07:54:00;;;;;;;1.80;1.30;;;;;;;10.41;59.05;99810.09;5011892;28;99248;-76
2022/02/16 07:56:27;;;;;;;2.88;1.20;;;;;;;9.94;60.26;99796.53;5013936;28;97869;-75
2022/02/16 07:58:54;;;;;;;2.40;1.50;;;;;;;10.26;59.54;99798.50;5004506;28;97763;-76
2022/02/16 08:01:20;;;;;;;6.47;1.80;;;;;;;10.13;59.53;99781.50;5003676;28;99377;-78
2022/02/16 08:03:48;;;;;;;1.95;1.42;;;;;;;9.91;59.91;99786.97;5010921;28;98899;-78
2022/02/16 08:06:14;;;;;;;2.10;1.10;;;;;;;9.72;60.83;99783.47;5007966;28;97927;-77
2022/02/16 08:08:41;;;;;;;2.15;1.23;;;;;;;9.72;60.78;99775.56;5007402;28;96814;-76
2022/02/16 08:11:07;;;;;;;2.50;1.13;;;;;;;9.86;60.73;99769.63;5003389;28;97821;-74
2022/02/16 08:13:33;;;;;;;2.38;1.23;;;;;;;10.21;59.32;99767.97;5010388;28;99041;-76
2022/02/16 08:16:00;;;;;;;3.25;1.30;;;;;;;9.90;60.54;99760.66;5016173;28;97161;-75
2022/02/16 08:18:27;;;;;;;5.45;1.10;;;;;;;9.96;60.07;99748.03;5009927;28;97452;-75
2022/02/16 08:20:55;;;;;;;2.42;1.40;;;;;;;10.13;60.10;99723.44;5014285;28;98854;-74
2022/02/16 08:23:22;;;;;;;1.77;1.05;;;;;;;10.00;59.76;99712.63;5015350;28;99162;-75
2022/02/16 08:25:48;;;;;;;1.38;0.98;;;;;;;10.04;60.08;99713.34;5014269;28;96800;-73
2022/02/16 08:28:14;;;;;;;3.22;1.35;;;;;;;9.87;60.50;99706.25;5025281;28;96816;-74
2022/02/16 08:30:41;;;;;;;3.53;1.05;;;;;;;10.09;59.63;99686.72;5026675;28;99656;-74
2022/02/16 08:33:11;;;;;;;5.57;0.73;;;;;;;10.06;59.67;99695.63;5021778;28;99178;-74
2022/02/16 08:35:37;;;;;;;4.25;1.10;;;;;;;9.67;60.93;99693.16;5014890;28;98164;-75
2022/02/16 08:38:05;;;;;;;1.67;0.98;;;;;;;10.08;60.17;99701.69;5011356;28;96834;-75
2022/02/16 08:40:32;;;;;;;1.23;1.02;;;;;;;10.37;59.23;99695.81;5005113;28;99450;-75
2022/02/16 08:42:58;;;;;;;2.42;0.80;;;;;;;10.19;59.33;99688.84;5006042;28;99120;-74
2022/02/16 08:45:25;;;;;;;7.10;0.80;;;;;;;9.83;60.21;99680.94;5006090;28;97032;-75
2022/02/16 08:47:51;;;;;;;3.63;0.80;;;;;;;9.97;60.37;99680.28;5007001;28;98666;-75
2022/02/16 08:50:17;;;;;;;1.83;0.68;;;;;;;10.09;59.37;99660.31;5006215;28;97850;-76
2022/02/16 08:52:44;;;;;;;1.08;0.77;;;;;;;10.36;58.51;99645.75;5005806;28;99432;-75
2022/02/16 08:55:11;;;;;;;2.97;1.13;;;;;;;9.89;59.78;99649.00;5004910;28;96938;-74
2022/02/16 08:57:39;;;;;;;0.93;0.80;;;;;;;10.24;58.92;99646.38;5004822;28;97291;-74
2022/02/16 09:00:08;;;;;;;0.70;0.70;;;;;;;10.17;58.52;99645.00;5000365;28;97994;-73
2022/02/16 09:02:35;;;;;;;0.80;0.80;;;;;;;9.99;59.39;99639.66;4993885;28;100890;-74
2022/02/16 09:05:02;;;;;;;1.42;0.70;;;;;;;10.29;58.50;99642.56;5002670;28;97295;-74
2022/02/16 09:07:31;;;;;;;2.70;0.70;;;;;;;10.26;58.28;99634.78;5008980;28;96920;-74
2022/02/16 09:09:59;;;;;;;3.60;0.60;;;;;;;10.38;58.43;99628.88;5007873;28;98868;-73
2022/02/16 09:12:27;;;;;;;0.63;0.60;;;;;;;10.03;59.09;99626.31;5007319;28;99371;-73
2022/02/16 09:14:54;;;;;;;0.98;0.68;;;;;;;10.77;57.58;99610.03;5007815;28;97468;-74
2022/02/16 09:17:21;;;;;;;1.95;0.95;;;;;;;10.37;58.74;99621.88;5006256;28;97694;-74
2022/02/16 09:19:47;;;;;;;0.95;0.65;;;;;;;10.23;58.97;99608.56;5004653;28;99975;-75
2022/02/16 09:22:16;;;;;;;0.95;0.60;;;;;;;10.11;59.11;99608.31;5006797;28;99143;-75
2022/02/16 09:24:43;;;;;;;3.25;0.60;;;;;;;10.40;59.15;99594.47;5004076;28;99457;-74
2022/02/16 09:27:09;;;;;;;0.98;0.50;;;;;;;10.52;58.33;99585.03;5004700;28;96911;-75
2022/02/16 09:29:37;;;;;;;2.15;0.75;;;;;;;10.73;57.37;99582.09;5004756;28;97446;-73
2022/02/16 09:32:04;;;;;;;1.52;0.57;;;;;;;10.54;58.60;99572.59;4996103;28;99151;-74
2022/02/16 09:34:30;;;;;;;0.75;0.60;;;;;;;10.26;58.89;99565.28;5006086;28;96801;-75
2022/02/16 09:36:57;;;;;;;1.35;0.60;;;;;;;10.64;58.17;99572.00;5003188;28;97500;-74
2022/02/16 09:39:23;;;;;;;1.40;0.57;;;;;;;10.98;57.23;99570.16;5002720;28;97905;-74
2022/02/16 09:41:49;;;;;;;2.60;0.52;;;;;;;10.60;57.71;99559.06;5005592;28;99041;-74
2022/02/16 09:44:25;;;;;;;0.85;0.47;;;;;;;10.77;58.11;99548.41;5006392;28;98745;-73
2022/02/16 09:46:53;;;;;;;0.85;0.50;;;;;;;11.05;57.49;99550.38;5003648;28;98841;-74
2022/02/16 09:49:20;;;;;;;0.85;0.40;;;;;;;10.10;59.22;99537.97;5006985;28;101471;-77
2022/02/16 09:51:46;;;;;;;1.60;0.45;;;;;;;10.12;60.14;99531.66;5006707;28;99862;-73
2022/02/16 09:54:13;;;;;;;1.20;0.63;;;;;;;10.67;59.63;99524.31;5007146;28;97749;-79
2022/02/16 09:56:43;;;;;;;0.60;0.60;;;;;;;10.14;60.94;99515.75;5008350;28;97243;-77
2022/02/16 09:59:10;;;;;;;2.03;0.65;;;;;;;10.30;60.84;99520.19;5004159;28;100003;-78
2022/02/16 10:01:56;;;;;;;0.95;0.50;;;;;;;10.64;59.58;99516.53;5005934;28;99560;-74
2022/02/16 10:04:24;;;;;;;0.65;0.50;;;;;;;10.48;60.65;99513.06;5005128;28;98750;-76
2022/02/16 10:06:50;;;;;;;357.00;15.63;;;;;;;10.61;60.62;99516.72;5007267;28;96880;-77
2022/02/16 10:09:26;;;;;;;1.00;0.40;;;;;;;10.71;60.40;99509.13;5007802;28;98934;-77
2022/02/16 10:11:55;;;;;;;2.17;0.50;;;;;;;10.86;59.51;99497.72;5007720;28;98931;-76
2022/02/16 10:14:24;;;;;;;1.63;0.60;;;;;;;10.35;61.98;99501.44;5001821;28;98836;-74
2022/02/16 10:16:50;;;;;;;3.00;0.68;;;;;;;10.74;60.71;99493.13;5002202;28;96819;-75
2022/02/16 10:19:19;;;;;;;1.83;0.40;;;;;;;10.85;60.61;99501.28;5001622;28;99443;-74
2022/02/16 10:22:09;;;;;;;1.92;0.70;;;;;;;10.81;60.60;99493.63;5010362;28;98989;-73
2022/02/16 10:24:36;;;;;;;0.85;0.50;;;;;;;10.57;61.68;99486.13;5014958;27;97666;-80
2022/02/16 10:27:04;;;;;;;3.83;0.50;;;;;;;10.53;61.64;99478.44;5022468;28;97017;-76
2022/02/16 10:29:35;;;;;;;2.10;0.60;;;;;;;10.46;61.72;99477.94;5009590;28;100856;-76
2022/02/16 10:32:03;;;;;;;0.47;0.40;;;;;;;10.46;61.94;99467.38;5010428;28;97802;-76
2022/02/16 10:34:53;;;;;;;2.33;0.60;;;;;;;10.39;62.48;99463.38;5009980;28;97212;-75
2022/02/16 10:37:21;;;;;;;0.70;0.50;;;;;;;10.39;62.57;99458.09;5005940;28;96963;-75
2022/02/16 10:40:01;;;;;;;2.80;0.57;;;;;;;10.07;63.23;99443.97;5006715;28;99089;-77
2022/02/16 10:42:28;;;;;;;54.85;3.13;;;;;;;10.32;62.78;99432.94;5007259;28;99093;-75
2022/02/16 10:45:05;;;;;;;1.05;0.57;;;;;;;10.34;62.82;99431.09;5007701;28;97343;-76
2022/02/16 10:47:51;;;;;;;1.25;0.50;;;;;;;10.18;63.52;99407.31;5004460;28;97276;-77
2022/02/16 10:50:19;;;;;;;8.13;0.50;;;;;;;10.39;62.51;99402.63;5006998;28;98812;-76
2022/02/16 10:52:50;;;;;;;2.45;0.50;;;;;;;10.61;61.55;99411.06;5005266;28;101084;-77
2022/02/16 10:55:17;;;;;;;3.65;0.70;;;;;;;10.47;63.07;99403.06;5012952;28;97458;-77
2022/02/16 10:57:43;;;;;;;0.52;0.45;;;;;;;10.37;63.40;99383.41;5007376;28;97415;-75
2022/02/16 11:00:11;;;;;;;0.95;0.40;;;;;;;10.70;62.71;99389.38;5006931;28;99130;-76
2022/02/16 11:02:47;;;;;;;1.10;0.40;;;;;;;11.06;61.19;99367.06;5009486;28;98985;-79
2022/02/16 11:05:14;;;;;;;0.73;0.70;;;;;;;10.77;61.67;99358.19;5007259;28;96829;-76
2022/02/16 11:07:43;;;;;;;1.30;0.60;;;;;;;10.67;62.41;99354.38;5010609;28;96878;-77
2022/02/16 11:10:11;;;;;;;0.88;0.57;;;;;;;10.19;63.39;99345.66;5014419;28;99314;-79
2022/02/16 11:12:38;;;;;;;1.00;0.63;;;;;;;10.31;63.35;99337.03;5019121;28;101454;-78
2022/02/16 11:15:05;;;;;;;3.30;0.60;;;;;;;10.29;63.37;99327.53;5019606;28;96810;-79
2022/02/16 11:17:32;;;;;;;6.65;0.60;;;;;;;10.87;61.98;99308.28;5018131;28;96778;-77
2022/02/16 11:20:18;;;;;;;2.20;0.65;;;;;;;10.54;62.73;99306.69;5016070;28;97262;-77
2022/02/16 11:22:51;;;;;;;1.40;0.53;;;;;;;10.91;62.54;99299.22;5011775;28;100705;-77
2022/02/16 11:25:28;;;;;;;2.92;0.88;;;;;;;11.09;62.03;99292.88;5008489;28;96898;-77
2022/02/16 11:27:54;;;;;;;1.55;0.90;;;;;;;10.29;63.29;99290.56;5002242;28;96716;-76
2022/02/16 11:30:30;;;;;;;0.98;0.77;;;;;;;10.48;63.51;99285.06;5011994;28;98849;-77
2022/02/16 11:33:10;;;;;;;4.85;0.90;;;;;;;10.12;65.33;99291.47;5014527;28;98977;-76
2022/02/16 11:35:45;;;;;;;2.13;1.00;;;;;;;10.07;65.27;99279.47;5007875;28;96948;-76